Time;durP1;ratioP1;P1;durP2;ratioP2;P2;SDS_P1;SDS_P2;PMS_P1;PMS_P2;Temp;Humidity;BMP_temperature;BMP_pressure;BME280_temperature;BME280_humidity;BME280_pressure;Samples;Min_cycle;Max_cycle;Signal;HPM_P1;HPM_P2
2023/08/22 00:03:04;1374271.00;4.58;2408.69;64476.00;0.21;112.21;;;;;27.30;3.20;;;;;;2274109;61;1395;-85
2023/08/22 00:05:31;711515.00;2.37;1227.21;62370.00;0.21;108.57;;;;;27.30;3.40;;;;;;2272375;61;1420;-86
2023/08/22 00:07:58;544062.00;1.81;937.72;64646.00;0.22;112.51;;;;;27.20;3.80;;;;;;2272410;61;1048;-88
2023/08/22 00:10:24;484683.00;1.62;835.46;63847.00;0.21;111.13;;;;;27.00;4.10;;;;;;2277724;40;3812;-85
2023/08/22 00:12:53;792721.00;2.64;1368.43;110091.00;0.37;190.99;;;;;26.90;4.90;;;;;;2272506;61;987;-88
2023/08/22 00:15:20;629547.00;2.10;1085.27;64103.00;0.21;111.57;;;;;26.90;4.20;;;;;;2272256;61;1718;-87
2023/08/22 00:17:48;628542.00;2.10;1083.53;55138.00;0.18;96.07;;;;;27.00;4.50;;;;;;2272450;61;926;-86
2023/08/22 00:20:17;531941.00;1.77;916.84;58339.00;0.19;101.61;;;;;27.20;4.10;;;;;;2275843;55;3778;-87
2023/08/22 00:22:45;372362.00;1.24;642.30;61865.00;0.21;107.70;;;;;27.20;3.90;;;;;;2276568;40;3649;-87
2023/08/22 00:25:13;718392.00;2.39;1239.15;59917.00;0.20;104.33;;;;;27.20;4.00;;;;;;2272228;61;2232;-86
2023/08/22 00:27:40;629071.00;2.10;1084.44;60582.00;0.20;105.48;;;;;27.00;4.10;;;;;;2272273;61;2174;-86
2023/08/22 00:30:09;451368.00;1.50;778.14;73699.00;0.25;128.15;;;;;26.80;4.30;;;;;;2279723;40;3771;-86
2023/08/22 00:35:09;1323330.00;4.41;2314.87;0.00;0.00;0.62;;;;;26.70;5.10;;;;;;2274040;61;1409;-86
2023/08/22 00:37:36;428606.00;1.43;738.99;0.00;0.00;0.62;;;;;26.70;5.50;;;;;;2283192;55;3752;-88
2023/08/22 00:40:03;490295.00;1.63;845.12;0.00;0.00;0.62;;;;;26.60;5.30;;;;;;2272291;61;918;-86
2023/08/22 00:42:30;427096.00;1.42;736.39;0.00;0.00;0.62;;;;;26.50;5.60;;;;;;2272297;61;1739;-87
2023/08/22 00:44:58;476418.00;1.59;821.23;51802.00;0.17;90.30;;;;;26.10;7.30;;;;;;2272338;61;1365;-88
2023/08/22 00:47:26;389697.00;1.30;672.09;0.00;0.00;0.62;;;;;26.20;7.30;;;;;;2272153;61;1013;-87
2023/08/22 00:49:53;549283.00;1.83;946.72;13669.00;0.05;24.31;;;;;26.40;6.60;;;;;;2272308;61;1083;-88
2023/08/22 00:52:20;545382.00;1.82;940.00;33706.00;0.11;59.00;;;;;26.50;6.00;;;;;;2272248;61;2001;-89
2023/08/22 00:54:49;961147.00;3.20;1663.78;19222.00;0.06;33.92;;;;;26.60;5.40;;;;;;2272230;61;1364;-86
2023/08/22 00:57:16;724390.00;2.41;1249.56;33551.00;0.11;58.73;;;;;26.70;5.60;;;;;;2272165;61;1106;-88
2023/08/22 00:59:44;384859.00;1.28;663.78;0.00;0.00;0.62;;;;;26.70;5.20;;;;;;2272288;61;1067;-86
2023/08/22 01:02:11;924006.00;3.08;1598.32;7907.00;0.03;14.32;;;;;26.70;5.00;;;;;;2272199;61;1001;-88
2023/08/22 01:04:39;800871.00;2.67;1382.64;92851.00;0.31;161.23;;;;;26.80;5.00;;;;;;2272310;61;1351;-87
2023/08/22 01:07:15;522917.00;1.74;901.29;34028.00;0.11;59.55;;;;;26.80;5.00;;;;;;2272252;61;1022;-88
2023/08/22 01:09:49;731948.00;2.44;1262.69;51831.00;0.17;90.35;;;;;26.70;5.00;;;;;;2272595;61;990;-87
2023/08/22 01:12:25;837517.00;2.79;1446.63;29897.00;0.10;52.40;;;;;26.70;5.00;;;;;;2272855;61;2015;-86
2023/08/22 01:15:00;630602.00;2.10;1087.09;0.00;0.00;0.62;;;;;26.60;5.00;;;;;;2272825;61;1321;-86
2023/08/22 01:17:28;764652.00;2.55;1319.54;0.00;0.00;0.62;;;;;26.60;5.00;;;;;;2272878;61;1302;-86
2023/08/22 01:19:56;855401.00;2.85;1477.92;38717.00;0.13;67.67;;;;;26.60;5.40;;;;;;2272739;61;1070;-86
2023/08/22 01:22:27;564836.00;1.88;973.54;0.00;0.00;0.62;;;;;26.50;5.00;;;;;;2272966;61;902;-86
2023/08/22 01:24:54;869603.00;2.90;1502.79;32573.00;0.11;57.04;;;;;26.50;5.20;;;;;;2272832;61;1258;-86
2023/08/22 01:27:27;1076557.00;3.59;1868.55;99031.00;0.33;171.90;;;;;26.40;5.90;;;;;;2275619;40;3621;-86
2023/08/22 01:30:04;744686.00;2.48;1284.82;63509.00;0.21;110.54;;;;;26.40;6.20;;;;;;2272886;61;1057;-86
2023/08/22 01:32:40;417528.00;1.39;719.94;18707.00;0.06;33.03;;;;;26.20;6.30;;;;;;2272940;61;1936;-87
2023/08/22 01:35:14;436018.00;1.45;751.73;59411.00;0.20;103.46;;;;;26.20;6.70;;;;;;2272829;61;1331;-88
2023/08/22 01:37:44;274204.00;0.91;473.57;0.00;0.00;0.62;;;;;26.30;5.60;;;;;;2272852;61;1026;-88
2023/08/22 01:40:12;721075.00;2.40;1243.80;0.00;0.00;0.62;;;;;26.40;5.70;;;;;;2272903;61;1005;-87
2023/08/22 01:42:39;623263.00;2.08;1074.40;47137.00;0.16;82.23;;;;;26.50;5.60;;;;;;2272867;61;904;-87
2023/08/22 01:45:07;246334.00;0.82;425.65;0.00;0.00;0.62;;;;;26.40;5.10;;;;;;2272828;61;1638;-87
2023/08/22 01:47:35;554824.00;1.85;956.28;22933.00;0.08;40.35;;;;;26.50;5.50;;;;;;2272871;61;1151;-86
2023/08/22 01:50:02;437471.00;1.46;754.23;21794.00;0.07;38.38;;;;;26.30;5.50;;;;;;2272902;61;1158;-87
2023/08/22 01:52:29;688383.00;2.29;1187.10;0.00;0.00;0.62;;;;;26.30;5.30;;;;;;2272788;61;1994;-87
2023/08/22 01:54:58;704772.00;2.35;1215.51;0.00;0.00;0.62;;;;;26.30;5.30;;;;;;2272930;61;1442;-87
2023/08/22 01:57:24;580037.00;1.93;999.76;13159.00;0.04;23.42;;;;;26.50;5.20;;;;;;2272760;61;1650;-88
2023/08/22 01:59:51;389309.00;1.30;671.43;0.00;0.00;0.62;;;;;26.50;5.40;;;;;;2272745;61;908;-87
2023/08/22 02:02:18;474364.00;1.58;817.70;0.00;0.00;0.62;;;;;26.50;5.20;;;;;;2272685;61;1024;-86
2023/08/22 02:04:45;516822.00;1.72;890.79;42633.00;0.14;74.44;;;;;26.50;5.70;;;;;;2272804;61;1707;-85
2023/08/22 02:07:12;558846.00;1.86;963.21;35109.00;0.12;61.43;;;;;26.70;4.90;;;;;;2272864;61;993;-87
2023/08/22 02:09:38;492058.00;1.64;848.15;0.00;0.00;0.62;;;;;26.50;4.80;;;;;;2272749;61;1725;-85
2023/08/22 02:12:07;396445.00;1.32;683.69;0.00;0.00;0.62;;;;;26.30;5.60;;;;;;2272791;61;1920;-86
2023/08/22 02:14:34;629755.00;2.10;1085.63;78947.00;0.26;137.22;;;;;26.20;6.20;;;;;;2272696;61;1368;-86
2023/08/22 02:17:01;535153.00;1.78;922.37;0.00;0.00;0.62;;;;;26.20;6.20;;;;;;2272804;61;1072;-86
2023/08/22 02:19:28;356650.00;1.19;615.29;4951.00;0.02;9.20;;;;;26.00;6.60;;;;;;2272775;61;1106;-86
2023/08/22 02:21:54;398609.00;1.33;687.41;0.00;0.00;0.62;;;;;26.00;6.70;;;;;;2272786;61;948;-86
2023/08/22 02:24:21;895363.00;2.98;1547.98;123506.00;0.41;214.13;;;;;26.10;6.70;;;;;;2272728;61;1724;-86
2023/08/22 02:26:48;302602.00;1.01;522.39;0.00;0.00;0.62;;;;;26.20;6.00;;;;;;2272789;61;1030;-86
2023/08/22 02:29:17;563650.00;1.88;971.49;73318.00;0.24;127.49;;;;;26.10;7.00;;;;;;2272736;61;1644;-86
2023/08/22 02:31:44;460750.00;1.54;794.27;0.00;0.00;0.62;;;;;26.20;6.20;;;;;;2272640;61;2010;-86
2023/08/22 02:34:10;524231.00;1.75;903.55;0.00;0.00;0.62;;;;;26.30;5.50;;;;;;2272656;61;1730;-85
2023/08/22 02:36:37;777443.00;2.59;1341.81;84817.00;0.28;147.36;;;;;26.30;5.90;;;;;;2272820;61;1051;-87
2023/08/22 02:39:04;547946.00;1.83;944.42;10721.00;0.04;19.20;;;;;26.30;6.00;;;;;;2272718;61;1115;-87
2023/08/22 02:41:31;542922.00;1.81;935.76;15811.00;0.05;28.02;;;;;26.20;6.50;;;;;;2272705;61;1043;-87
2023/08/22 02:43:58;484682.00;1.62;835.46;0.00;0.00;0.62;;;;;26.00;6.80;;;;;;2272639;61;1406;-88
2023/08/22 02:46:26;381253.00;1.27;657.58;0.00;0.00;0.62;;;;;26.10;6.70;;;;;;2272706;61;1768;-88
2023/08/22 02:48:53;577854.00;1.93;996.00;18479.00;0.06;32.64;;;;;26.10;6.30;;;;;;2272706;61;1074;-87
2023/08/22 02:51:20;566504.00;1.89;976.42;0.00;0.00;0.62;;;;;26.00;7.20;;;;;;2272704;61;1923;-87
2023/08/22 02:53:47;514871.00;1.72;887.43;0.00;0.00;0.62;;;;;26.10;6.50;;;;;;2272668;61;1281;-87
2023/08/22 02:56:13;464875.00;1.55;801.37;12470.00;0.04;22.23;;;;;26.10;6.70;;;;;;2272667;61;1082;-86
2023/08/22 02:58:40;818893.00;2.73;1414.09;0.00;0.00;0.62;;;;;26.20;6.70;;;;;;2272710;61;1017;-88
2023/08/22 03:01:08;364493.00;1.21;628.77;0.00;0.00;0.62;;;;;26.10;7.00;;;;;;2272706;61;1110;-86
2023/08/22 03:03:36;313019.00;1.04;540.30;13988.00;0.05;24.86;;;;;26.10;6.60;;;;;;2272879;61;1252;-85
2023/08/22 03:06:03;284785.00;0.95;491.76;20472.00;0.07;36.09;;;;;25.90;6.50;;;;;;2272993;61;1139;-86
2023/08/22 03:08:30;328806.00;1.10;567.43;0.00;0.00;0.62;;;;;26.10;7.10;;;;;;2272961;61;1081;-86
2023/08/22 03:11:00;446871.00;1.49;770.40;55656.00;0.19;96.97;;;;;26.00;6.90;;;;;;2273041;61;1081;-87
2023/08/22 03:13:29;402495.00;1.34;694.09;0.00;0.00;0.62;;;;;25.70;7.70;;;;;;2272917;61;2007;-87
2023/08/22 03:15:57;333870.00;1.11;576.14;0.00;0.00;0.62;;;;;25.80;6.90;;;;;;2272915;61;1136;-86
2023/08/22 03:18:25;194480.00;0.65;336.42;8791.00;0.03;15.85;;;;;25.80;7.30;;;;;;2273044;61;1276;-87
2023/08/22 03:20:56;474000.00;1.58;817.07;0.00;0.00;0.62;;;;;25.60;7.50;;;;;;2272823;61;1091;-86
2023/08/22 03:23:23;88212.00;0.29;153.22;0.00;0.00;0.62;;;;;25.40;8.50;;;;;;2272719;61;1518;-87
2023/08/22 03:25:56;624938.00;2.08;1077.30;47207.00;0.16;82.36;;;;;25.10;9.90;;;;;;2272880;61;1780;-87
2023/08/22 03:28:24;200970.00;0.67;347.59;370.00;0.00;1.26;;;;;25.10;9.90;;;;;;2272902;61;1769;-87
2023/08/22 03:30:55;219875.00;0.73;380.13;0.00;0.00;0.62;;;;;25.10;9.90;;;;;;2272819;61;1640;-87
2023/08/22 03:33:22;330948.00;1.10;571.12;0.00;0.00;0.62;;;;;25.10;9.90;;;;;;2272690;61;2006;-87
2023/08/22 03:35:48;311119.00;1.04;537.03;0.00;0.00;0.62;;;;;25.30;9.30;;;;;;2272860;61;1722;-87
2023/08/22 03:38:17;326863.00;1.09;564.09;0.00;0.00;0.62;;;;;25.20;9.90;;;;;;2272931;61;1084;-87
2023/08/22 03:40:44;617469.00;2.06;1064.39;13582.00;0.05;24.15;;;;;25.10;9.80;;;;;;2272894;61;1121;-87
2023/08/22 03:43:11;352599.00;1.18;608.33;0.00;0.00;0.62;;;;;25.00;10.40;;;;;;2272812;61;1031;-87
2023/08/22 03:45:37;312015.00;1.04;538.57;0.00;0.00;0.62;;;;;25.10;9.90;;;;;;2272891;61;1415;-86
2023/08/22 03:48:05;338678.00;1.13;584.40;27863.00;0.09;48.88;;;;;25.20;9.90;;;;;;2272836;61;1714;-84
2023/08/22 03:50:32;393623.00;1.31;678.84;41169.00;0.14;71.91;;;;;25.30;9.60;;;;;;2272838;61;1620;-86
2023/08/22 03:52:59;226200.00;0.75;391.01;18053.00;0.06;31.90;;;;;25.20;9.90;;;;;;2275854;55;3590;-86
2023/08/22 03:55:27;279216.00;0.93;482.19;0.00;0.00;0.62;;;;;25.20;9.90;;;;;;2276899;61;1356;-86
2023/08/22 03:57:54;385051.00;1.28;664.11;0.00;0.00;0.62;;;;;25.30;9.90;;;;;;2276933;61;993;-87
2023/08/22 04:00:21;493136.00;1.64;850.01;0.00;0.00;0.62;;;;;25.30;10.00;;;;;;2276889;61;1005;-86
2023/08/22 04:02:48;704541.00;2.35;1215.11;53574.00;0.18;93.37;;;;;25.30;10.00;;;;;;2276830;61;1695;-86
2023/08/22 04:05:15;439317.00;1.46;757.41;12393.00;0.04;22.09;;;;;25.20;9.90;;;;;;2276820;61;1406;-88
2023/08/22 04:07:42;117956024.00;393.19;66480524.00;34447.00;0.11;60.28;;;;;25.20;9.90;;;;;;2276775;61;1298;-88
2023/08/22 04:10:09;521435.00;1.74;898.74;10852.00;0.04;19.43;;;;;25.30;10.00;;;;;;2276903;61;983;-87
2023/08/22 04:12:38;518628.00;1.73;893.90;0.00;0.00;0.62;;;;;25.30;10.00;;;;;;2276845;61;1998;-87
2023/08/22 04:15:05;592688.00;1.98;1021.60;42010.00;0.14;73.37;;;;;25.40;10.10;;;;;;2276940;61;1451;-87
2023/08/22 04:17:32;382673.00;1.28;660.02;0.00;0.00;0.62;;;;;25.30;9.80;;;;;;2276864;61;1136;-86
2023/08/22 04:19:59;731806.00;2.44;1262.44;24650.00;0.08;43.32;;;;;25.30;10.00;;;;;;2276895;61;1044;-86
2023/08/22 04:22:26;937819.00;3.13;1622.64;0.00;0.00;0.62;;;;;25.30;10.00;;;;;;2276823;61;1110;-88
2023/08/22 04:24:53;401497.00;1.34;692.38;0.00;0.00;0.62;;;;;25.30;10.30;;;;;;2276886;61;1412;-87
2023/08/22 04:27:20;452194.00;1.51;779.56;0.00;0.00;0.62;;;;;25.30;10.00;;;;;;2276666;61;1285;-86
2023/08/22 04:29:48;378802.00;1.26;653.37;0.00;0.00;0.62;;;;;25.30;9.80;;;;;;2276828;61;1115;-86
2023/08/22 04:32:15;618719.00;2.06;1066.55;0.00;0.00;0.62;;;;;25.20;9.70;;;;;;2276775;61;1927;-87
2023/08/22 04:34:41;415066.00;1.38;715.71;0.00;0.00;0.62;;;;;25.00;9.80;;;;;;2276721;61;1297;-86
2023/08/22 04:37:08;286241.00;0.95;494.27;0.00;0.00;0.62;;;;;25.10;9.90;;;;;;2276905;61;1095;-87
2023/08/22 04:39:35;555240.00;1.85;956.99;18076.00;0.06;31.94;;;;;25.10;9.80;;;;;;2276878;61;1031;-86
2023/08/22 04:42:02;475419.00;1.58;819.51;41107.00;0.14;71.80;;;;;25.10;9.50;;;;;;2276795;61;1072;-86
2023/08/22 04:44:29;632929.00;2.11;1091.11;0.00;0.00;0.62;;;;;25.10;9.70;;;;;;2277009;61;1441;-86
2023/08/22 04:46:57;659249.00;2.20;1136.64;53075.00;0.18;92.50;;;;;25.20;9.80;;;;;;2277213;61;1126;-88
2023/08/22 04:49:25;634309.00;2.11;1093.50;0.00;0.00;0.62;;;;;25.10;9.90;;;;;;2277578;61;1102;-87
2023/08/22 04:51:52;449361.00;1.50;774.68;29287.00;0.10;51.35;;;;;25.10;9.90;;;;;;2277469;61;1919;-87
2023/08/22 04:54:19;574255.00;1.91;989.79;0.00;0.00;0.62;;;;;25.20;9.60;;;;;;2277322;61;1323;-86
2023/08/22 04:56:46;422915.00;1.41;729.20;23591.00;0.08;41.49;;;;;25.30;9.90;;;;;;2277554;61;1046;-86
2023/08/22 04:59:12;568878.00;1.90;980.51;149467.00;0.50;258.89;;;;;25.20;9.60;;;;;;2277410;61;1563;-87
2023/08/22 05:01:39;260406.00;0.87;449.85;0.00;0.00;0.62;;;;;25.40;9.00;;;;;;2277521;61;1084;-85
2023/08/22 05:04:07;340024.00;1.13;586.71;0.00;0.00;0.62;;;;;25.40;8.60;;;;;;2277393;61;1416;-87
2023/08/22 05:06:34;390214.00;1.30;672.98;0.00;0.00;0.62;;;;;25.60;8.20;;;;;;2277479;61;1128;-87
2023/08/22 05:09:02;550903.00;1.84;949.52;0.00;0.00;0.62;;;;;25.60;8.00;;;;;;2277378;61;1026;-85
2023/08/22 05:11:29;359090.00;1.20;619.48;0.00;0.00;0.62;;;;;25.60;8.60;;;;;;2277435;61;1081;-86
2023/08/22 05:13:56;404246.00;1.35;697.10;9663.00;0.03;17.37;;;;;25.50;8.80;;;;;;2277333;61;2003;-85
2023/08/22 05:16:22;414055.00;1.38;713.97;0.00;0.00;0.62;;;;;25.50;8.70;;;;;;2277220;61;1126;-86
2023/08/22 05:18:49;308921.00;1.03;533.25;0.00;0.00;0.62;;;;;25.70;8.30;;;;;;2277243;61;1058;-85
2023/08/22 05:21:17;585557.00;1.95;1009.29;23243.00;0.08;40.89;;;;;25.90;8.40;;;;;;2277413;61;1089;-86
2023/08/22 05:23:44;609096.00;2.03;1049.93;18003.00;0.06;31.81;;;;;25.90;8.10;;;;;;2277320;61;1390;-86
2023/08/22 05:26:11;621017.00;2.07;1070.52;73688.00;0.25;128.13;;;;;25.90;7.60;;;;;;2277285;61;1425;-85
2023/08/22 05:28:38;838818.00;2.80;1448.91;50720.00;0.17;88.43;;;;;25.90;7.90;;;;;;2277338;61;1086;-87
2023/08/22 05:31:05;519222.00;1.73;894.92;0.00;0.00;0.62;;;;;26.00;7.90;;;;;;2277313;61;1074;-88
2023/08/22 05:33:31;662196.00;2.21;1141.74;91505.00;0.31;158.91;;;;;26.30;7.60;;;;;;2277264;61;2000;-86
2023/08/22 05:35:58;401641.00;1.34;692.63;0.00;0.00;0.62;;;;;26.90;7.90;;;;;;2277376;61;1041;-87
2023/08/22 05:38:26;366067.00;1.22;631.48;0.00;0.00;0.62;;;;;28.00;4.20;;;;;;2277286;61;1140;-87
2023/08/22 05:40:54;511196.00;1.70;881.10;0.00;0.00;0.62;;;;;29.10;1.00;;;;;;2277286;61;1161;-88
2023/08/22 05:43:21;358943.00;1.20;619.23;0.00;0.00;0.62;;;;;29.90;1.70;;;;;;2277363;61;1114;-89
2023/08/22 05:45:48;415485.00;1.38;716.43;0.00;0.00;0.62;;;;;30.70;1.00;;;;;;2277306;61;980;-85
2023/08/22 05:48:15;382572.00;1.28;659.85;0.00;0.00;0.62;;;;;31.30;1.00;;;;;;2277259;61;1054;-87
2023/08/22 05:50:41;389412.00;1.30;671.60;16583.00;0.06;29.35;;;;;32.00;1.00;;;;;;2277295;61;944;-87
2023/08/22 05:53:08;555998.00;1.85;958.30;10039.00;0.03;18.02;;;;;32.20;1.00;;;;;;2277128;61;2014;-87
2023/08/22 05:55:36;377013.00;1.26;650.29;20052.00;0.07;35.36;;;;;32.90;1.00;;;;;;2277166;61;1309;-87
2023/08/22 05:58:04;853487.00;2.84;1474.57;89255.00;0.30;155.02;;;;;33.40;1.00;;;;;;2277340;61;1243;-86
2023/08/22 06:00:31;413135.00;1.38;712.39;14540.00;0.05;25.81;;;;;33.70;1.00;;;;;;2277276;61;1067;-86
2023/08/22 06:02:59;538826.00;1.80;928.70;116459.00;0.39;201.97;;;;;33.80;1.00;;;;;;2277273;61;1165;-87
2023/08/22 06:05:25;304634.00;1.02;525.89;0.00;0.00;0.62;;;;;33.70;1.00;;;;;;2277141;61;1319;-86
2023/08/22 06:07:53;452070.00;1.51;779.34;0.00;0.00;0.62;;;;;33.70;1.00;;;;;;2277278;61;1072;-87
2023/08/22 06:10:22;469648.00;1.57;809.58;16532.00;0.06;29.26;;;;;33.30;1.00;;;;;;2277228;61;1525;-87
2023/08/22 06:12:50;769131.00;2.56;1327.34;109044.00;0.36;189.18;;;;;33.60;1.00;;;;;;2277106;61;1911;-86
2023/08/22 06:15:17;404427.00;1.35;697.42;0.00;0.00;0.62;;;;;34.00;1.00;;;;;;2277063;61;1397;-86
2023/08/22 06:17:44;702947.00;2.34;1212.35;86088.00;0.29;149.55;;;;;34.60;1.00;;;;;;2277231;61;1018;-88
2023/08/22 06:20:11;526484.00;1.75;907.43;0.00;0.00;0.62;;;;;34.40;1.00;;;;;;2277190;61;1177;-89
2023/08/22 06:22:38;707255.00;2.36;1219.82;40306.00;0.13;70.42;;;;;34.60;1.00;;;;;;2280585;56;3726;-89
2023/08/22 06:25:06;216343.00;0.72;374.05;0.00;0.00;0.62;;;;;35.20;1.00;;;;;;2269591;61;1400;-88
2023/08/22 06:27:33;621538.00;2.07;1071.42;75465.00;0.25;131.20;;;;;36.00;1.00;;;;;;2273075;61;1104;-87
2023/08/22 06:30:02;530871.00;1.77;914.99;28804.00;0.10;50.51;;;;;36.20;1.00;;;;;;2273020;61;1095;-88
2023/08/22 06:32:29;753601.00;2.51;1300.32;29250.00;0.10;51.28;;;;;36.30;1.00;;;;;;2273030;61;1919;-88
2023/08/22 06:35:01;304893.00;1.02;526.33;21950.00;0.07;38.65;;;;;36.40;1.00;;;;;;2273031;61;1417;-87
2023/08/22 06:37:28;468791.00;1.56;808.11;18541.00;0.06;32.74;;;;;36.50;1.00;;;;;;2273124;61;1130;-88
2023/08/22 06:39:55;345999.00;1.15;596.98;10788.00;0.04;19.31;;;;;36.40;1.00;;;;;;2273045;61;1736;-86
2023/08/22 06:42:23;365986.00;1.22;631.34;0.00;0.00;0.62;;;;;36.20;1.00;;;;;;2307127;55;3792;-87
2023/08/22 06:44:50;403543.00;1.35;695.90;0.00;0.00;0.62;;;;;36.40;1.00;;;;;;2277085;61;1393;-87
2023/08/22 06:47:18;582353.00;1.94;1003.76;0.00;0.00;0.62;;;;;37.10;1.00;;;;;;2277066;61;1080;-89
2023/08/22 06:49:45;623344.00;2.08;1074.54;22512.00;0.08;39.62;;;;;37.50;1.00;;;;;;2277147;61;948;-87
2023/08/22 06:52:14;656810.00;2.19;1132.42;79261.00;0.26;137.76;;;;;38.50;1.00;;;;;;2277005;61;992;-89
2023/08/22 06:54:40;651945.00;2.17;1124.00;71195.00;0.24;123.83;;;;;37.80;1.00;;;;;;2275018;55;3615;-90
2023/08/22 06:57:07;686079.00;2.29;1183.11;0.00;0.00;0.62;;;;;37.80;1.00;;;;;;2269036;61;1071;-88
2023/08/22 06:59:34;1108259.00;3.69;1925.20;204307.00;0.68;353.34;;;;;38.10;1.00;;;;;;2269061;61;1107;-88
2023/08/22 07:02:01;302897.00;1.01;522.90;0.00;0.00;0.62;;;;;38.40;1.00;;;;;;2268939;61;1052;-88
2023/08/22 07:04:31;240470.00;0.80;415.56;0.00;0.00;0.62;;;;;38.30;1.00;;;;;;2268950;61;1403;-88
2023/08/22 07:06:58;170544.00;0.57;295.20;0.00;0.00;0.62;;;;;38.50;1.00;;;;;;2268729;61;1626;-87
2023/08/22 07:09:25;356665.00;1.19;615.32;0.00;0.00;0.62;;;;;38.30;1.00;;;;;;2268968;61;1103;-88
2023/08/22 07:11:52;229321.00;0.76;396.38;0.00;0.00;0.62;;;;;38.20;1.00;;;;;;2279692;40;3649;-88
2023/08/22 07:14:19;416904.00;1.39;718.87;0.00;0.00;0.62;;;;;38.20;1.00;;;;;;2276929;61;1911;-86
2023/08/22 07:16:46;275911.00;0.92;476.51;0.00;0.00;0.62;;;;;38.70;1.00;;;;;;2277042;61;1576;-87
2023/08/22 07:19:13;217372.00;0.72;375.82;0.00;0.00;0.62;;;;;38.90;1.00;;;;;;2277056;61;1093;-86
2023/08/22 07:21:41;364965.00;1.22;629.58;0.00;0.00;0.62;;;;;38.70;1.00;;;;;;2277042;61;1591;-88
2023/08/22 07:24:08;142348.00;0.47;246.62;0.00;0.00;0.62;;;;;38.50;1.00;;;;;;2277030;61;1303;-87
2023/08/22 07:26:35;1348867.00;4.50;2361.82;308858.00;1.03;533.15;;;;;38.10;1.00;;;;;;2277091;61;1067;-87
2023/08/22 07:31:37;684836.00;2.28;1180.95;0.00;0.00;0.62;;;;;37.90;1.00;;;;;;2013150;59;2008;-89
2023/08/22 07:34:05;238572.00;0.80;412.29;0.00;0.00;0.62;;;;;37.90;1.00;;;;;;2268680;61;2002;-88
2023/08/22 07:36:32;810921.00;2.70;1400.18;147211.00;0.49;255.00;;;;;38.30;1.00;;;;;;2268860;61;951;-88
2023/08/22 07:39:01;294499.00;0.98;508.46;0.00;0.00;0.62;;;;;38.90;1.00;;;;;;2268765;61;1188;-88
2023/08/22 07:41:27;492534.00;1.64;848.97;28506.00;0.10;50.00;;;;;39.00;1.00;;;;;;2268843;61;1040;-89
2023/08/22 07:43:54;462661.00;1.54;797.56;0.00;0.00;0.62;;;;;39.50;1.00;;;;;;2268818;61;1646;-88
2023/08/22 07:46:21;709372.00;2.36;1223.49;26223.00;0.09;46.04;;;;;39.80;1.00;;;;;;2268768;61;1552;-88
2023/08/22 07:48:48;442898.00;1.48;763.57;0.00;0.00;0.62;;;;;39.50;1.00;;;;;;2268811;61;932;-89
2023/08/22 07:51:15;407937.00;1.36;703.45;12735.00;0.04;22.69;;;;;40.20;1.00;;;;;;2268793;61;1677;-88
2023/08/22 07:53:41;358962.00;1.20;619.26;82813.00;0.28;143.90;;;;;40.00;1.00;;;;;;2268706;61;1914;-88
2023/08/22 07:56:10;312485.00;1.04;539.38;23152.00;0.08;40.73;;;;;40.00;1.00;;;;;;2268676;61;1092;-86
2023/08/22 07:58:37;758330.00;2.53;1308.54;190125.00;0.63;328.92;;;;;40.00;1.00;;;;;;2268729;61;943;-86
2023/08/22 08:01:05;309220.00;1.03;533.77;0.00;0.00;0.62;;;;;39.80;1.00;;;;;;2268715;61;1107;-87
2023/08/22 08:03:32;98187.00;0.33;170.44;0.00;0.00;0.62;;;;;39.80;1.00;;;;;;2268580;61;1408;-88
2023/08/22 08:05:59;48179.00;0.16;84.04;0.00;0.00;0.62;;;;;40.40;1.00;;;;;;2268651;61;1045;-87
2023/08/22 08:08:26;225148.00;0.75;389.20;0.00;0.00;0.62;;;;;40.00;1.00;;;;;;2268594;61;942;-87
2023/08/22 08:10:53;531873.00;1.77;916.72;49132.00;0.16;85.69;;;;;39.70;1.00;;;;;;2268696;61;915;-87
2023/08/22 08:13:21;303120.00;1.01;523.28;0.00;0.00;0.62;;;;;40.60;1.00;;;;;;2268454;61;1924;-88
2023/08/22 08:15:48;438192.00;1.46;755.47;0.00;0.00;0.62;;;;;40.50;1.00;;;;;;2268645;61;1345;-86
2023/08/22 08:18:15;284704.00;0.95;491.62;0.00;0.00;0.62;;;;;40.00;1.00;;;;;;2268611;61;1562;-86
2023/08/22 08:20:43;445313.00;1.48;767.72;5179.00;0.02;9.60;;;;;39.90;1.00;;;;;;2269176;61;2464;-88
2023/08/22 08:23:11;334362.00;1.11;576.98;24345.00;0.08;42.79;;;;;40.70;1.00;;;;;;2269208;61;1642;-88
2023/08/22 08:25:38;556276.00;1.85;958.78;2368.00;0.01;4.72;;;;;39.70;1.00;;;;;;2269314;61;1438;-89
2023/08/22 08:28:06;390040.00;1.30;672.68;7251.00;0.02;13.19;;;;;39.90;1.00;;;;;;2269353;61;1019;-86
2023/08/22 08:30:34;262148.00;0.87;452.84;0.00;0.00;0.62;;;;;40.00;1.00;;;;;;2269286;61;1098;-86
2023/08/22 08:33:04;277128.00;0.92;478.60;0.00;0.00;0.62;;;;;39.80;1.00;;;;;;2269280;61;2008;-86
2023/08/22 08:35:31;297340.00;0.99;513.35;0.00;0.00;0.62;;;;;39.40;1.00;;;;;;2269166;61;1375;-87
2023/08/22 08:37:59;509189.00;1.70;877.65;0.00;0.00;0.62;;;;;39.10;1.00;;;;;;2345623;55;3764;-87
2023/08/22 08:40:29;322059.00;1.07;555.84;0.00;0.00;0.62;;;;;38.90;1.00;;;;;;2279498;40;3599;-89
2023/08/22 08:45:26;1236337.00;4.12;2156.06;14002.00;0.05;24.88;;;;;38.20;1.00;;;;;;2291922;55;3721;-88
2023/08/22 08:47:58;186673.00;0.62;322.98;0.00;0.00;0.62;;;;;37.70;1.00;;;;;;2384633;40;3581;-89
2023/08/22 08:52:58;1310850.00;4.37;2291.98;0.00;0.00;0.62;;;;;37.40;1.00;;;;;;2270583;61;1952;-90
2023/08/22 08:58:00;344335.00;1.15;594.12;0.00;0.00;0.62;;;;;37.70;1.00;;;;;;2291490;56;1772;-89
2023/08/22 09:00:27;241781.00;0.81;417.81;0.00;0.00;0.62;;;;;38.00;1.00;;;;;;2283912;55;3762;-89
2023/08/22 09:02:56;473254.00;1.58;815.79;0.00;0.00;0.62;;;;;37.60;1.00;;;;;;2305301;40;3559;-88
2023/08/22 09:05:24;939609.00;3.13;1625.80;0.00;0.00;0.62;;;;;37.90;1.00;;;;;;2284097;40;3627;-90
2023/08/22 09:07:51;175966.00;0.59;304.54;0.00;0.00;0.62;;;;;37.50;1.00;;;;;;2322746;40;3737;-87
2023/08/22 09:10:32;164506.00;0.55;284.80;0.00;0.00;0.62;;;;;37.40;1.00;;;;;;2276948;61;993;-88
2023/08/22 09:13:03;401999.00;1.34;693.24;18146.00;0.06;32.06;;;;;36.10;1.00;;;;;;2282729;55;3740;-88
2023/08/22 09:15:31;399596.00;1.33;689.11;51861.00;0.17;90.40;;;;;35.80;1.00;;;;;;2282681;55;3836;-88
2023/08/22 09:17:59;484356.00;1.61;834.89;0.00;0.00;0.62;;;;;35.90;1.00;;;;;;2309331;40;3625;-89
2023/08/22 09:23:00;1287436.00;4.29;2249.13;0.00;0.00;0.62;;;;;36.20;1.00;;;;;;2270452;61;1291;-88
2023/08/22 09:25:39;460250.00;1.53;793.41;0.00;0.00;0.62;;;;;36.30;1.00;;;;;;2278843;40;3602;-89
2023/08/22 09:28:11;145688.00;0.49;252.38;0.00;0.00;0.62;;;;;36.30;1.00;;;;;;2283001;55;3737;-88
2023/08/22 09:33:11;1314857.00;4.38;2299.32;0.00;0.00;0.62;;;;;36.20;1.00;;;;;;1937495;56;3620;-89
2023/08/22 09:35:38;281528.00;0.94;486.16;70793.00;0.24;123.13;;;;;36.40;1.00;;;;;;2273108;61;1439;-88
2023/08/22 09:38:10;335129.00;1.12;578.30;0.00;0.00;0.62;;;;;35.90;1.00;;;;;;2284881;56;3769;-88
2023/08/22 09:40:49;338102.00;1.13;583.41;0.00;0.00;0.62;;;;;35.70;1.00;;;;;;2283488;40;3592;-88
2023/08/22 09:43:16;95816.00;0.32;166.35;0.00;0.00;0.62;;;;;35.70;1.00;;;;;;2277070;61;981;-89
2023/08/22 09:45:44;295307.00;0.98;509.85;0.00;0.00;0.62;;;;;35.40;1.00;;;;;;2321129;40;3852;-88
2023/08/22 09:48:19;157712.00;0.53;273.10;0.00;0.00;0.62;;;;;35.50;1.00;;;;;;2272804;61;1290;-88
2023/08/22 09:50:51;270463.00;0.90;467.14;0.00;0.00;0.62;;;;;35.60;1.00;;;;;;2272908;61;1110;-89
2023/08/22 09:55:54;333351.00;1.11;575.25;0.00;0.00;0.62;;;;;36.10;1.00;;;;;;2351207;41;1883;-87
2023/08/22 09:58:23;163684.00;0.55;283.39;0.00;0.00;0.62;;;;;36.00;1.00;;;;;;2276827;61;1029;-89
2023/08/22 10:00:52;190305.00;0.63;329.23;0.00;0.00;0.62;;;;;36.20;1.00;;;;;;2311146;40;3781;-87
2023/08/22 10:05:52;967657.00;3.23;1675.27;0.00;0.00;0.62;;;;;36.40;1.00;;;;;;2287346;56;3655;-88
2023/08/22 10:10:53;1251520.00;4.17;2183.65;0.00;0.00;0.62;;;;;35.90;1.00;;;;;;2280368;55;3653;-90
2023/08/22 10:13:21;315871.00;1.05;545.20;0.00;0.00;0.62;;;;;36.10;1.00;;;;;;2372359;40;3582;-90